createdAt,value
2022-12-16T00:01:35.725Z,33.63
2022-12-16T00:04:02.885Z,32.45
2022-12-16T00:06:32.359Z,31.75
2022-12-16T00:09:00.564Z,33.78
2022-12-16T00:11:28.438Z,29.95
2022-12-16T00:13:55.437Z,34.67
2022-12-16T00:16:22.673Z,31.08
2022-12-16T00:18:49.848Z,33.25
2022-12-16T00:21:20.141Z,31.85
2022-12-16T00:23:47.837Z,34.10
2022-12-16T00:26:14.881Z,32.83
2022-12-16T00:28:43.709Z,33.45
2022-12-16T00:31:11.369Z,33.95
2022-12-16T00:33:38.934Z,34.97
2022-12-16T00:36:07.797Z,34.42
2022-12-16T00:38:35.943Z,35.92
2022-12-16T00:41:03.320Z,35.10
2022-12-16T00:43:30.737Z,35.22
2022-12-16T00:45:58.196Z,34.40
2022-12-16T00:48:25.610Z,35.35
2022-12-16T00:50:54.933Z,34.10
2022-12-16T00:53:23.923Z,33.55
2022-12-16T00:55:51.733Z,35.30
2022-12-16T00:58:19.059Z,34.17
2022-12-16T01:00:46.242Z,32.13
2022-12-16T01:03:17.963Z,32.88
2022-12-16T01:05:48.661Z,34.38
2022-12-16T01:08:15.640Z,34.40
2022-12-16T01:10:42.654Z,34.83
2022-12-16T01:13:09.879Z,35.05
2022-12-16T01:15:37.646Z,32.15
2022-12-16T01:18:07.853Z,34.97
2022-12-16T01:20:36.048Z,32.53
2022-12-16T01:23:03.019Z,33.88
2022-12-16T01:25:30.167Z,36.88
2022-12-16T01:27:57.356Z,34.95
2022-12-16T01:30:24.819Z,34.88
2022-12-16T01:32:51.809Z,34.13
2022-12-16T01:35:51.508Z,34.67
2022-12-16T01:38:09.674Z,34.42
2022-12-16T01:40:36.814Z,34.63
2022-12-16T01:43:12.486Z,36.05
2022-12-16T01:45:39.920Z,35.95
2022-12-16T01:48:14.884Z,34.95
2022-12-16T01:50:42.602Z,34.22
2022-12-16T01:53:10.020Z,33.28
2022-12-16T01:55:46.745Z,32.88
2022-12-16T01:58:21.002Z,32.97
2022-12-16T02:00:48.628Z,31.50
2022-12-16T02:03:16.322Z,28.23
2022-12-16T02:05:45.907Z,24.67
2022-12-16T02:08:15.881Z,23.75
2022-12-16T02:10:42.809Z,23.33
2022-12-16T02:13:40.995Z,22.88
2022-12-16T02:16:18.774Z,21.98
2022-12-16T02:18:57.911Z,23.42
2022-12-16T02:21:30.769Z,23.83
2022-12-16T02:24:33.183Z,23.85
2022-12-16T02:27:19.208Z,19.70
2022-12-16T02:30:17.416Z,17.90
2022-12-16T02:33:22.257Z,19.05
2022-12-16T02:36:11.045Z,20.33
2022-12-16T02:38:59.754Z,18.10
2022-12-16T02:41:42.326Z,20.45
2022-12-16T02:44:11.742Z,19.58
2022-12-16T02:46:53.099Z,20.13
2022-12-16T02:49:22.433Z,20.52
2022-12-16T02:51:50.027Z,21.10
2022-12-16T02:54:17.908Z,21.33
2022-12-16T02:56:52.652Z,22.67
2022-12-16T02:59:47.396Z,22.23
2022-12-16T03:02:30.429Z,24.77
2022-12-16T03:05:18.516Z,24.85
2022-12-16T03:07:48.479Z,24.52
2022-12-16T03:10:19.488Z,23.23
2022-12-16T03:12:47.058Z,24.60
2022-12-16T03:15:19.684Z,24.10
2022-12-16T03:17:49.167Z,25.25
2022-12-16T03:20:21.948Z,25.23
2022-12-16T03:22:52.193Z,23.50
2022-12-16T03:25:21.231Z,25.48
2022-12-16T03:27:59.002Z,23.95
2022-12-16T03:30:42.107Z,25.88
2022-12-16T03:33:21.795Z,22.92
2022-12-16T03:36:02.262Z,24.75
2022-12-16T03:38:32.530Z,23.35
2022-12-16T03:41:01.372Z,25.48
2022-12-16T03:43:28.579Z,25.48
2022-12-16T03:46:01.837Z,25.50
2022-12-16T03:48:28.944Z,25.73
2022-12-16T03:50:56.012Z,25.42
2022-12-16T03:53:26.389Z,25.77
2022-12-16T03:55:54.545Z,28.08
2022-12-16T03:58:21.891Z,25.55
2022-12-16T04:00:49.029Z,24.40
2022-12-16T04:03:16.274Z,24.88
2022-12-16T04:05:45.869Z,25.80
2022-12-16T04:08:13.064Z,24.48
2022-12-16T04:10:58.401Z,25.15
2022-12-16T04:13:43.735Z,25.00
2022-12-16T04:16:34.981Z,24.30
2022-12-16T04:19:21.792Z,25.15
2022-12-16T04:22:07.648Z,27.40
2022-12-16T04:24:36.817Z,24.27
2022-12-16T04:27:22.771Z,26.13
2022-12-16T04:30:08.366Z,24.83
2022-12-16T04:32:54.472Z,25.83
2022-12-16T04:35:40.206Z,23.85
2022-12-16T04:38:26.155Z,25.08
2022-12-16T04:41:12.085Z,25.35
2022-12-16T04:43:58.481Z,24.90
2022-12-16T04:46:43.986Z,25.40
2022-12-16T04:49:29.903Z,29.98
2022-12-16T04:52:15.827Z,29.50
2022-12-16T04:55:01.761Z,25.77
2022-12-16T04:57:47.149Z,26.98
2022-12-16T05:00:33.191Z,24.10
2022-12-16T05:03:18.694Z,24.92
2022-12-16T05:06:04.382Z,24.17
2022-12-16T05:08:49.719Z,23.92
2022-12-16T05:11:35.740Z,25.63
2022-12-16T05:14:21.859Z,24.95
2022-12-16T05:17:07.711Z,25.05
2022-12-16T05:19:54.824Z,24.23
2022-12-16T05:22:40.916Z,25.60
2022-12-16T05:25:27.254Z,24.70
2022-12-16T05:28:13.170Z,25.40
2022-12-16T05:30:59.191Z,25.73
2022-12-16T05:33:44.678Z,24.83
2022-12-16T05:36:30.017Z,22.60
2022-12-16T05:39:23.422Z,23.23
2022-12-16T05:42:09.906Z,22.80
2022-12-16T05:44:55.242Z,22.05
2022-12-16T05:47:40.964Z,24.10
2022-12-16T05:50:26.934Z,24.73
2022-12-16T05:53:14.406Z,23.23
2022-12-16T05:56:01.385Z,22.27
2022-12-16T05:58:47.769Z,23.70
2022-12-16T06:01:33.528Z,21.50
2022-12-16T06:04:19.626Z,23.02
2022-12-16T06:07:06.956Z,23.02
2022-12-16T06:09:56.531Z,21.73
2022-12-16T06:12:43.066Z,21.20
2022-12-16T06:15:32.066Z,21.17
2022-12-16T06:18:17.534Z,21.77
2022-12-16T06:21:03.047Z,21.80
2022-12-16T06:23:48.735Z,22.77
2022-12-16T06:26:35.309Z,20.45
2022-12-16T06:29:20.820Z,20.50
2022-12-16T06:32:06.725Z,21.02
2022-12-16T06:34:52.258Z,22.27
2022-12-16T06:37:37.670Z,21.27
2022-12-16T06:40:23.769Z,23.02
2022-12-16T06:43:09.140Z,22.10
2022-12-16T06:45:55.501Z,19.85
2022-12-16T06:48:44.502Z,19.38
2022-12-16T06:51:30.056Z,21.55
2022-12-16T06:54:15.326Z,20.45
2022-12-16T06:57:00.736Z,18.30
2022-12-16T06:59:46.324Z,19.08
2022-12-16T07:02:31.768Z,18.63
2022-12-16T07:05:17.183Z,19.25
2022-12-16T07:08:10.419Z,20.05
2022-12-16T07:11:03.394Z,21.50
2022-12-16T07:13:55.149Z,19.23
2022-12-16T07:16:41.292Z,20.27
2022-12-16T07:19:26.765Z,16.65
2022-12-16T07:22:12.381Z,18.15
2022-12-16T07:24:57.789Z,16.17
2022-12-16T07:27:43.289Z,19.95
2022-12-16T07:30:30.125Z,15.80
2022-12-16T07:33:15.499Z,16.25
2022-12-16T07:36:01.799Z,15.25
2022-12-16T07:38:47.228Z,15.77
2022-12-16T07:41:32.672Z,13.20
2022-12-16T07:44:18.351Z,13.10
2022-12-16T07:47:03.625Z,14.27
2022-12-16T07:49:49.679Z,12.45
2022-12-16T07:52:35.424Z,11.93
2022-12-16T07:55:21.028Z,11.52
2022-12-16T07:58:10.276Z,10.75
2022-12-16T08:00:55.625Z,9.43
2022-12-16T08:03:41.860Z,9.55
2022-12-16T08:06:27.436Z,12.98
2022-12-16T08:09:13.208Z,13.10
2022-12-16T08:11:58.629Z,10.77
2022-12-16T08:14:44.107Z,11.95
2022-12-16T08:17:29.912Z,9.27
2022-12-16T08:20:15.889Z,17.20
2022-12-16T08:23:01.354Z,18.85
2022-12-16T08:25:47.359Z,15.30
2022-12-16T08:28:33.337Z,11.88
2022-12-16T08:31:19.013Z,10.15
2022-12-16T08:34:04.873Z,9.00
2022-12-16T08:36:51.496Z,7.70
2022-12-16T08:39:37.036Z,8.18
2022-12-16T08:42:23.029Z,7.43
2022-12-16T08:45:08.451Z,7.60
2022-12-16T08:47:55.451Z,6.78
2022-12-16T08:50:41.754Z,6.88
2022-12-16T08:53:47.497Z,6.60
2022-12-16T08:56:33.400Z,6.20
2022-12-16T08:59:19.231Z,5.95
2022-12-16T09:02:05.963Z,6.72
2022-12-16T09:04:52.073Z,6.25
2022-12-16T09:07:41.453Z,6.13
2022-12-16T09:10:27.226Z,5.40
2022-12-16T09:13:12.713Z,4.53
2022-12-16T09:15:58.598Z,6.45
2022-12-16T09:18:44.399Z,6.28
2022-12-16T09:21:33.211Z,5.25
2022-12-16T09:24:19.499Z,6.28
2022-12-16T09:27:06.347Z,5.22
2022-12-16T09:29:51.773Z,6.00
2022-12-16T09:32:39.343Z,5.60
2022-12-16T09:35:26.275Z,5.55
2022-12-16T09:38:12.262Z,6.10
2022-12-16T09:41:00.428Z,5.25
2022-12-16T09:43:50.217Z,5.57
2022-12-16T09:46:50.299Z,5.63
2022-12-16T09:49:55.024Z,5.90
2022-12-16T09:52:43.054Z,6.57
2022-12-16T09:55:45.243Z,6.30
2022-12-16T09:58:32.174Z,6.40
2022-12-16T10:01:18.406Z,5.95
2022-12-16T10:04:04.192Z,5.38
2022-12-16T10:06:56.550Z,5.40
2022-12-16T10:10:04.021Z,6.03
2022-12-16T10:13:17.796Z,5.55
2022-12-16T10:16:12.943Z,5.95
2022-12-16T10:19:11.110Z,5.18
2022-12-16T10:22:06.769Z,6.10
2022-12-16T10:25:03.048Z,5.88
2022-12-16T10:28:02.334Z,5.95
2022-12-16T10:30:48.477Z,4.80
2022-12-16T10:33:35.716Z,4.80
2022-12-16T10:36:21.917Z,5.90
2022-12-16T10:39:19.535Z,5.45
2022-12-16T10:42:10.507Z,6.25
2022-12-16T10:44:59.339Z,6.45
2022-12-16T10:47:44.687Z,7.05
2022-12-16T10:50:33.657Z,5.75
2022-12-16T10:53:23.680Z,6.28
2022-12-16T10:56:46.548Z,6.60
2022-12-16T10:59:32.720Z,7.15
2022-12-16T11:02:22.130Z,7.60
2022-12-16T11:05:08.768Z,8.00
2022-12-16T11:08:08.751Z,8.77
2022-12-16T11:11:02.573Z,8.65
2022-12-16T11:13:53.955Z,8.63
2022-12-16T11:16:48.059Z,9.45
2022-12-16T11:19:45.412Z,11.02
2022-12-16T11:22:36.417Z,10.60
2022-12-16T11:25:31.191Z,10.90
2022-12-16T11:28:36.526Z,11.85
2022-12-16T11:31:32.133Z,12.85
2022-12-16T11:34:21.090Z,12.52
2022-12-16T11:37:11.035Z,14.23
2022-12-16T11:39:58.733Z,13.95
2022-12-16T11:42:50.314Z,16.00
2022-12-16T11:45:39.243Z,12.70
2022-12-16T11:48:55.283Z,14.88
2022-12-16T11:51:43.060Z,15.57
2022-12-16T11:54:38.114Z,16.48
2022-12-16T11:57:33.704Z,14.68
2022-12-16T12:00:21.115Z,15.80
2022-12-16T12:03:09.369Z,17.10
2022-12-16T12:06:07.446Z,16.33
2022-12-16T12:09:26.928Z,16.75
2022-12-16T12:12:31.428Z,17.80
2022-12-16T12:15:47.322Z,17.20
2022-12-16T12:18:42.274Z,17.77
2022-12-16T12:21:43.983Z,16.25
2022-12-16T12:25:13.618Z,16.30
2022-12-16T12:28:14.392Z,17.95
2022-12-16T12:31:18.838Z,16.52
2022-12-16T12:34:25.541Z,18.95
2022-12-16T12:37:26.130Z,18.77
2022-12-16T12:40:22.847Z,17.35
2022-12-16T12:43:13.670Z,18.15
2022-12-16T12:46:40.974Z,18.50
2022-12-16T12:49:45.639Z,18.48
2022-12-16T12:56:07.229Z,19.67
2022-12-16T12:58:55.552Z,20.70
2022-12-16T13:01:49.248Z,20.00
2022-12-16T13:04:38.688Z,20.40
2022-12-16T13:07:30.049Z,20.35
2022-12-16T13:10:39.253Z,20.13
2022-12-16T13:13:34.773Z,19.90
2022-12-16T13:16:23.519Z,19.23
2022-12-16T13:19:47.797Z,18.88
2022-12-16T13:22:48.849Z,21.30
2022-12-16T13:26:09.225Z,21.88
2022-12-16T13:28:58.781Z,20.27
2022-12-16T13:31:47.034Z,20.35
2022-12-16T13:34:38.525Z,20.30
2022-12-16T13:37:31.179Z,18.67
2022-12-16T13:40:37.064Z,20.92
2022-12-16T13:43:24.065Z,20.85
2022-12-16T13:46:15.985Z,21.33
2022-12-16T13:49:01.954Z,21.48
2022-12-16T13:51:56.622Z,21.63
2022-12-16T13:54:51.522Z,22.08
2022-12-16T13:57:40.367Z,21.40
2022-12-16T14:00:37.539Z,20.13
2022-12-16T14:03:30.867Z,19.77
2022-12-16T14:06:18.726Z,19.90
2022-12-16T14:09:08.522Z,18.98
2022-12-16T14:12:43.722Z,19.30
2022-12-16T14:15:44.740Z,19.95
2022-12-16T14:19:21.481Z,19.75
2022-12-16T14:22:18.783Z,19.63
2022-12-16T14:25:05.701Z,20.08
2022-12-16T14:27:53.735Z,19.13
2022-12-16T14:30:42.906Z,19.90
2022-12-16T14:33:44.127Z,20.77
2022-12-16T14:36:45.039Z,21.20
2022-12-16T14:39:41.558Z,21.02
2022-12-16T14:42:46.822Z,21.35
2022-12-16T14:45:38.549Z,21.17
2022-12-16T14:48:42.085Z,20.70
2022-12-16T14:51:57.040Z,20.90
2022-12-16T14:54:56.141Z,21.13
2022-12-16T14:57:45.140Z,20.90
2022-12-16T15:00:32.522Z,21.80
2022-12-16T15:03:18.307Z,20.48
2022-12-16T15:06:05.916Z,20.80
2022-12-16T15:08:55.856Z,21.27
2022-12-16T15:11:43.466Z,21.77
2022-12-16T15:14:35.632Z,20.70
2022-12-16T15:17:21.954Z,22.08
2022-12-16T15:20:11.381Z,23.77
2022-12-16T15:23:05.993Z,24.67
2022-12-16T15:25:52.016Z,23.52
2022-12-16T15:29:07.337Z,23.70
2022-12-16T15:32:03.330Z,23.75
2022-12-16T15:35:06.292Z,22.15
2022-12-16T15:38:04.274Z,23.48
2022-12-16T15:40:53.030Z,23.70
2022-12-16T15:43:41.961Z,25.05
2022-12-16T15:46:38.490Z,22.10
2022-12-16T15:49:35.781Z,22.70
2022-12-16T15:52:21.725Z,24.50
2022-12-16T15:55:11.239Z,24.42
2022-12-16T15:57:57.650Z,24.02
2022-12-16T16:00:46.614Z,25.88
2022-12-16T16:03:39.098Z,24.17
2022-12-16T16:06:37.623Z,25.00
2022-12-16T16:09:32.957Z,26.20
2022-12-16T16:12:18.562Z,25.20
2022-12-16T16:15:04.133Z,27.02
2022-12-16T16:17:50.118Z,26.10
2022-12-16T16:20:37.202Z,26.50
2022-12-16T16:23:23.186Z,27.17
2022-12-16T16:26:08.855Z,25.60
2022-12-16T16:28:57.769Z,27.48
2022-12-16T16:31:43.891Z,26.13
2022-12-16T16:34:32.670Z,27.08
2022-12-16T16:37:18.365Z,27.85
2022-12-16T16:40:04.424Z,27.10
2022-12-16T16:42:50.518Z,28.83
2022-12-16T16:45:39.049Z,27.20
2022-12-16T16:48:33.681Z,28.75
2022-12-16T16:51:20.657Z,28.73
2022-12-16T16:54:07.828Z,28.08
2022-12-16T16:56:56.351Z,28.50
2022-12-16T16:59:42.732Z,27.38
2022-12-16T17:02:42.630Z,27.83
2022-12-16T17:05:32.076Z,27.48
2022-12-16T17:08:17.987Z,27.02
2022-12-16T17:11:06.792Z,28.00
2022-12-16T17:13:52.786Z,26.38
2022-12-16T17:16:39.334Z,28.20
2022-12-16T17:19:30.701Z,29.27
2022-12-16T17:34:51.813Z,25.90
2022-12-16T17:37:41.138Z,24.45
2022-12-16T17:40:27.824Z,24.85
2022-12-16T17:43:13.345Z,24.85
2022-12-16T17:46:01.828Z,26.38
2022-12-16T17:48:47.334Z,27.52
2022-12-16T17:51:32.892Z,27.55
2022-12-16T17:54:25.003Z,27.88
2022-12-16T17:57:13.618Z,28.17
2022-12-16T17:59:59.794Z,27.13
2022-12-16T18:02:46.084Z,28.40
2022-12-16T18:05:38.835Z,28.30
2022-12-16T18:08:29.438Z,26.10
2022-12-16T18:11:16.549Z,26.58
2022-12-16T18:14:16.211Z,26.98
2022-12-16T18:17:01.624Z,29.70
2022-12-16T18:19:47.484Z,28.52
2022-12-16T18:22:35.610Z,28.10
2022-12-16T18:25:21.435Z,28.77
2022-12-16T18:28:11.926Z,29.05
2022-12-16T18:30:57.670Z,29.10
2022-12-16T18:33:43.276Z,26.75
2022-12-16T18:36:29.291Z,28.77
2022-12-16T18:39:14.839Z,29.80
2022-12-16T18:42:06.242Z,31.23
2022-12-16T18:44:57.543Z,31.42
2022-12-16T18:47:46.774Z,30.10
2022-12-16T18:50:37.485Z,32.90
2022-12-16T18:53:41.933Z,31.98
2022-12-16T18:56:28.320Z,29.23
2022-12-16T18:59:14.042Z,29.02
2022-12-16T19:01:59.965Z,27.13
2022-12-16T19:04:45.906Z,30.90
2022-12-16T19:07:33.750Z,28.88
2022-12-16T19:10:20.163Z,29.60
2022-12-16T19:13:07.380Z,31.05
2022-12-16T19:15:53.139Z,31.13
2022-12-16T19:18:38.971Z,30.00
2022-12-16T19:21:25.555Z,32.45
2022-12-16T19:24:11.500Z,30.80
2022-12-16T19:26:57.364Z,29.92
2022-12-16T19:29:43.581Z,30.92
2022-12-16T19:32:29.765Z,30.70
2022-12-16T19:35:15.278Z,29.80
2022-12-16T19:38:00.996Z,30.83
2022-12-16T19:40:46.817Z,30.05
2022-12-16T19:43:32.598Z,29.95
2022-12-16T19:46:18.472Z,29.05
2022-12-16T19:49:04.778Z,30.15
2022-12-16T19:51:51.932Z,28.75
2022-12-16T19:54:37.879Z,29.73
2022-12-16T19:57:23.763Z,29.10
2022-12-16T20:00:09.907Z,29.77
2022-12-16T20:02:56.705Z,30.35
2022-12-16T20:05:42.971Z,30.05
2022-12-16T20:08:28.833Z,31.55
2022-12-16T20:11:14.917Z,31.25
2022-12-16T20:14:00.718Z,29.70
2022-12-16T20:16:46.957Z,31.98
2022-12-16T20:19:32.924Z,29.42
2022-12-16T20:22:18.965Z,31.35
2022-12-16T20:25:04.449Z,30.60
2022-12-16T20:27:49.727Z,31.45
2022-12-16T20:30:36.977Z,31.02
2022-12-16T20:33:23.031Z,32.30
2022-12-16T20:36:19.625Z,30.75
2022-12-16T20:39:07.225Z,32.70
2022-12-16T20:41:56.115Z,34.38
2022-12-16T20:44:42.255Z,31.50
2022-12-16T20:47:28.270Z,32.50
2022-12-16T20:50:14.148Z,32.75
2022-12-16T20:52:59.948Z,32.90
2022-12-16T20:55:45.886Z,33.58
2022-12-16T20:58:36.770Z,37.28
2022-12-16T21:01:23.218Z,33.80
2022-12-16T21:04:09.123Z,35.90
2022-12-16T21:06:56.060Z,32.22
2022-12-16T21:09:46.611Z,31.88
2022-12-16T21:12:32.285Z,34.33
2022-12-16T21:15:18.075Z,34.08
2022-12-16T21:18:04.068Z,32.78
2022-12-16T21:20:49.801Z,33.10
2022-12-16T21:23:35.942Z,35.45
2022-12-16T21:26:21.743Z,33.10
2022-12-16T21:29:07.909Z,31.27
2022-12-16T21:31:53.576Z,29.52
2022-12-16T21:34:39.304Z,31.95
2022-12-16T21:37:26.230Z,34.25
2022-12-16T21:40:11.622Z,31.50
2022-12-16T21:42:57.328Z,31.33
2022-12-16T21:45:42.989Z,33.72
2022-12-16T21:48:30.104Z,36.05
2022-12-16T21:51:15.533Z,33.42
2022-12-16T21:54:06.371Z,35.10
2022-12-16T21:56:53.200Z,31.98
2022-12-16T21:59:42.525Z,33.65
2022-12-16T22:02:31.975Z,32.05
2022-12-16T22:05:17.711Z,30.55
2022-12-16T22:08:03.424Z,34.55
2022-12-16T22:10:49.015Z,31.02
2022-12-16T22:13:36.064Z,31.70
2022-12-16T22:16:22.132Z,31.38
2022-12-16T22:19:14.303Z,31.42
2022-12-16T22:21:59.715Z,28.88
2022-12-16T22:24:45.062Z,30.75
2022-12-16T22:27:30.510Z,29.13
2022-12-16T22:30:15.947Z,30.23
2022-12-16T22:33:01.716Z,30.48
2022-12-16T22:35:47.182Z,28.25
2022-12-16T22:38:32.593Z,29.38
2022-12-16T22:41:19.229Z,29.27
2022-12-16T22:44:06.234Z,27.95
2022-12-16T22:47:08.842Z,29.35
2022-12-16T22:49:56.037Z,29.20
2022-12-16T22:52:42.163Z,29.48
2022-12-16T22:55:27.730Z,28.67
2022-12-16T22:58:13.955Z,33.13
2022-12-16T23:01:04.019Z,28.45
2022-12-16T23:03:56.506Z,30.45
2022-12-16T23:06:43.772Z,27.15
2022-12-16T23:09:30.358Z,28.73
2022-12-16T23:12:16.377Z,27.02
2022-12-16T23:15:02.086Z,26.80
2022-12-16T23:17:47.648Z,27.02
2022-12-16T23:20:33.353Z,26.27
2022-12-16T23:23:18.934Z,27.55
2022-12-16T23:26:17.634Z,28.05
2022-12-16T23:29:03.442Z,25.60
2022-12-16T23:31:49.046Z,26.60
2022-12-16T23:34:34.583Z,27.17
2022-12-16T23:37:20.060Z,27.83
2022-12-16T23:40:07.640Z,28.65
2022-12-16T23:42:53.057Z,27.63
2022-12-16T23:45:41.675Z,25.65
2022-12-16T23:48:28.663Z,27.45
2022-12-16T23:51:14.632Z,27.48
2022-12-16T23:54:00.563Z,26.70
2022-12-16T23:56:46.119Z,28.60
2022-12-16T23:59:32.098Z,27.90
